Time;durP1;ratioP1;P1;durP2;ratioP2;P2;SDS_P1;SDS_P2;PMS_P1;PMS_P2;Temp;Humidity;BMP_temperature;BMP_pressure;BME280_temperature;BME280_humidity;BME280_pressure;Samples;Min_cycle;Max_cycle;Signal;HPM_P1;HPM_P2
2022/03/10 00:02:09;;;;;;;7.07;3.72;;;10.60;99.90;;;;;;5065558;28;20045;-74
2022/03/10 00:04:39;;;;;;;5.40;3.58;;;10.70;99.90;;;;;;5046285;28;20029;-74
2022/03/10 00:07:05;;;;;;;5.43;3.33;;;10.60;99.90;;;;;;5054295;28;20039;-73
2022/03/10 00:09:32;;;;;;;3.70;2.92;;;10.50;99.90;;;;;;5051462;28;20158;-74
2022/03/10 00:12:02;;;;;;;7.10;3.40;;;10.40;99.90;;;;;;5056151;28;20068;-73
2022/03/10 00:14:29;;;;;;;7.30;3.60;;;10.40;99.90;;;;;;5057398;28;20032;-73
2022/03/10 00:16:55;;;;;;;5.72;3.70;;;10.30;99.90;;;;;;5063856;28;20417;-73
2022/03/10 00:19:21;;;;;;;6.13;2.90;;;10.30;99.90;;;;;;5057223;28;20048;-73
2022/03/10 00:21:48;;;;;;;5.05;3.22;;;10.30;99.90;;;;;;5051998;28;20037;-73
2022/03/10 00:24:15;;;;;;;5.88;3.70;;;10.30;99.90;;;;;;5058718;28;20068;-72
2022/03/10 00:26:44;;;;;;;6.10;3.05;;;10.40;99.90;;;;;;5057366;28;20051;-73
2022/03/10 00:29:10;;;;;;;4.30;3.20;;;10.50;99.90;;;;;;5059590;28;20067;-73
2022/03/10 00:31:36;;;;;;;4.72;3.50;;;10.50;99.90;;;;;;5056860;28;20484;-73
2022/03/10 00:34:02;;;;;;;4.40;3.40;;;10.50;99.90;;;;;;5049389;28;20119;-73
2022/03/10 00:36:28;;;;;;;6.22;3.90;;;10.50;99.90;;;;;;5051172;28;20363;-73
2022/03/10 00:38:54;;;;;;;4.45;3.28;;;10.50;99.90;;;;;;5054748;28;20102;-72
2022/03/10 00:41:20;;;;;;;7.05;3.47;;;10.50;99.90;;;;;;5054273;28;20071;-72
2022/03/10 00:43:47;;;;;;;6.05;3.60;;;10.50;99.90;;;;;;5056092;28;20056;-74
2022/03/10 00:46:13;;;;;;;6.03;3.83;;;10.50;99.90;;;;;;5053607;28;20059;-73
2022/03/10 00:48:39;;;;;;;7.55;4.22;;;10.60;99.90;;;;;;5058829;28;20489;-73
2022/03/10 00:51:06;;;;;;;5.28;3.90;;;10.60;99.90;;;;;;5061781;28;20115;-72
2022/03/10 00:53:32;;;;;;;7.32;4.57;;;10.70;99.90;;;;;;5047356;28;20040;-73
2022/03/10 00:55:58;;;;;;;7.03;3.83;;;10.70;99.90;;;;;;5054168;28;20047;-72
2022/03/10 00:58:24;;;;;;;8.70;4.28;;;10.80;99.90;;;;;;5063312;28;20040;-73
2022/03/10 01:00:51;;;;;;;5.53;4.13;;;10.90;99.90;;;;;;5053357;28;20033;-73
2022/03/10 01:03:17;;;;;;;5.40;3.90;;;11.00;99.90;;;;;;5051130;28;20041;-72
2022/03/10 01:05:43;;;;;;;5.57;3.72;;;11.10;99.90;;;;;;5053977;28;20146;-73
2022/03/10 01:08:09;;;;;;;4.47;3.60;;;11.20;99.90;;;;;;5057716;28;20082;-73
2022/03/10 01:10:35;;;;;;;4.75;3.55;;;11.30;99.90;;;;;;5063533;28;20041;-74
2022/03/10 01:13:00;;;;;;;10.82;4.43;;;11.40;99.90;;;;;;5069546;28;20033;-72
2022/03/10 01:15:28;;;;;;;7.28;3.95;;;11.40;99.90;;;;;;5070871;28;20044;-73
2022/03/10 01:17:55;;;;;;;7.18;4.40;;;11.50;99.90;;;;;;5055964;28;20037;-73
2022/03/10 01:20:26;;;;;;;5.05;4.18;;;11.50;99.90;;;;;;5055415;28;20098;-73
2022/03/10 01:22:52;;;;;;;6.97;4.38;;;11.60;99.90;;;;;;5057596;28;20045;-73
2022/03/10 01:25:18;;;;;;;6.68;4.35;;;11.60;99.90;;;;;;5072564;28;20110;-72
2022/03/10 01:27:44;;;;;;;7.65;4.40;;;11.50;99.90;;;;;;5061712;28;20036;-73
2022/03/10 01:30:12;;;;;;;7.95;4.43;;;11.50;99.90;;;;;;5053925;28;20036;-72
2022/03/10 01:32:38;;;;;;;7.20;3.92;;;11.50;99.90;;;;;;5057081;28;20033;-72
2022/03/10 01:35:05;;;;;;;7.07;4.50;;;11.50;99.90;;;;;;5054097;28;20204;-73
2022/03/10 01:37:32;;;;;;;5.70;4.40;;;11.40;99.90;;;;;;5055168;28;20037;-73
2022/03/10 01:39:58;;;;;;;6.15;4.55;;;11.50;99.90;;;;;;5056984;28;20087;-72
2022/03/10 01:42:24;;;;;;;5.97;4.10;;;11.40;99.90;;;;;;5067164;28;20033;-73
2022/03/10 01:44:54;;;;;;;5.43;4.30;;;11.40;99.90;;;;;;5055852;28;20358;-73
2022/03/10 01:47:20;;;;;;;10.95;4.78;;;11.40;99.90;;;;;;5052511;28;20029;-73
2022/03/10 01:49:46;;;;;;;8.13;4.47;;;11.40;99.90;;;;;;5056076;28;20061;-72
2022/03/10 01:52:12;;;;;;;7.03;4.53;;;11.40;99.90;;;;;;5054145;28;20083;-73
2022/03/10 01:54:40;;;;;;;7.30;5.38;;;11.40;99.90;;;;;;5065621;28;20063;-72
2022/03/10 01:57:06;;;;;;;7.05;4.78;;;11.40;99.90;;;;;;5058363;28;20444;-72
2022/03/10 01:59:33;;;;;;;6.15;4.72;;;11.40;99.90;;;;;;5039450;28;20064;-72
2022/03/10 02:01:59;;;;;;;7.18;5.38;;;11.40;99.90;;;;;;5044121;28;20056;-73
2022/03/10 02:04:24;;;;;;;7.25;4.85;;;11.40;99.90;;;;;;5063614;28;20029;-73
2022/03/10 02:06:52;;;;;;;6.97;5.15;;;11.40;99.90;;;;;;5047103;28;20037;-73
2022/03/10 02:12:04;;;;;;;7.00;5.30;;;11.40;99.90;;;;;;5077244;28;20846;-73
2022/03/10 02:17:20;;;;;;;8.30;5.93;;;11.40;99.90;;;;;;5080280;28;20452;-73
2022/03/10 02:19:57;;;;;;;9.23;5.40;;;11.30;99.90;;;;;;5047875;28;20040;-74
2022/03/10 02:22:25;;;;;;;7.15;5.10;;;11.20;99.90;;;;;;5060812;28;20144;-74
2022/03/10 02:24:52;;;;;;;8.57;6.28;;;11.10;99.90;;;;;;5082530;28;20043;-73
2022/03/10 02:27:26;;;;;;;9.07;6.38;;;11.10;99.90;;;;;;5077035;28;20108;-72
2022/03/10 02:29:54;;;;;;;8.70;6.13;;;11.00;99.90;;;;;;5082952;28;20068;-72
2022/03/10 02:32:22;;;;;;;8.05;6.28;;;10.90;99.90;;;;;;5058420;28;20361;-73
2022/03/10 02:34:48;;;;;;;6.75;5.57;;;10.90;99.90;;;;;;5062332;28;20382;-73
2022/03/10 02:37:15;;;;;;;8.82;5.82;;;10.80;99.90;;;;;;5060561;28;20043;-73
2022/03/10 02:39:42;;;;;;;8.20;6.38;;;10.80;99.90;;;;;;5058625;28;20088;-72
2022/03/10 02:42:09;;;;;;;8.98;6.05;;;10.70;99.90;;;;;;5060290;28;20106;-72
2022/03/10 02:44:46;;;;;;;12.10;6.50;;;10.70;99.90;;;;;;5053834;28;20396;-73
2022/03/10 02:47:13;;;;;;;7.97;5.95;;;10.70;99.90;;;;;;5058651;28;20115;-73
2022/03/10 02:49:40;;;;;;;8.27;6.40;;;10.60;99.90;;;;;;5056447;28;20051;-73
2022/03/10 02:52:07;;;;;;;8.82;6.38;;;10.50;99.90;;;;;;5042132;28;20040;-74
2022/03/10 02:54:33;;;;;;;9.23;7.55;;;10.60;99.90;;;;;;5054273;28;20473;-72
2022/03/10 02:56:59;;;;;;;9.63;7.07;;;10.50;99.90;;;;;;5059648;28;20042;-72
2022/03/10 02:59:25;;;;;;;8.90;7.43;;;10.40;99.90;;;;;;5055978;28;20047;-73
2022/03/10 03:01:52;;;;;;;10.63;7.70;;;10.50;99.90;;;;;;5055976;28;20453;-73
2022/03/10 03:04:18;;;;;;;10.30;7.63;;;10.40;99.90;;;;;;5052196;28;20060;-72
2022/03/10 03:06:44;;;;;;;11.70;8.15;;;10.40;99.90;;;;;;5057655;28;20036;-72
2022/03/10 03:09:10;;;;;;;10.98;7.35;;;10.40;99.90;;;;;;5057456;28;20041;-72
2022/03/10 03:11:36;;;;;;;13.98;9.00;;;10.40;99.90;;;;;;5061208;28;20047;-73
2022/03/10 03:14:02;;;;;;;9.77;8.02;;;10.40;99.90;;;;;;5060577;28;20446;-73
2022/03/10 03:16:29;;;;;;;10.60;7.82;;;10.30;99.90;;;;;;5078340;28;20411;-73
2022/03/10 03:18:55;;;;;;;12.05;8.05;;;10.20;99.90;;;;;;5057783;28;20067;-73
2022/03/10 03:21:21;;;;;;;11.73;7.97;;;10.20;99.90;;;;;;5058884;28;20036;-72
2022/03/10 03:23:47;;;;;;;10.73;7.97;;;10.20;99.90;;;;;;5059256;28;20047;-73
2022/03/10 03:26:14;;;;;;;12.70;8.38;;;10.20;99.90;;;;;;5063665;28;20186;-72
2022/03/10 03:28:40;;;;;;;12.15;7.97;;;10.20;99.90;;;;;;5060645;28;20058;-72
2022/03/10 03:31:06;;;;;;;10.57;7.75;;;10.30;99.90;;;;;;5040721;28;20031;-73
2022/03/10 03:33:32;;;;;;;8.40;6.60;;;10.40;99.90;;;;;;5067038;28;20037;-73
2022/03/10 03:35:58;;;;;;;9.15;7.00;;;10.40;99.90;;;;;;5057649;28;20028;-73
2022/03/10 03:38:24;;;;;;;9.32;7.50;;;10.40;99.90;;;;;;5055888;28;20068;-74
2022/03/10 03:40:50;;;;;;;10.25;7.82;;;10.40;99.90;;;;;;5056371;28;20365;-73
2022/03/10 03:43:16;;;;;;;11.23;7.35;;;10.40;99.90;;;;;;5058003;28;20052;-73
2022/03/10 03:45:42;;;;;;;10.38;7.13;;;10.50;99.90;;;;;;5053146;28;20416;-73
2022/03/10 03:48:08;;;;;;;10.98;7.00;;;10.50;99.90;;;;;;5054703;28;20040;-72
2022/03/10 03:50:34;;;;;;;9.77;7.47;;;10.60;99.90;;;;;;5057998;28;20145;-73
2022/03/10 03:53:00;;;;;;;9.90;7.57;;;10.70;99.90;;;;;;5062174;28;20120;-72
2022/03/10 03:55:26;;;;;;;10.43;7.28;;;10.70;99.90;;;;;;5044284;28;20039;-73
2022/03/10 03:57:52;;;;;;;11.20;6.97;;;10.80;99.90;;;;;;5078712;28;20056;-73
2022/03/10 04:00:19;;;;;;;12.85;8.55;;;10.90;99.90;;;;;;5061627;28;20029;-73
2022/03/10 04:02:46;;;;;;;13.80;7.65;;;10.90;99.90;;;;;;5079047;28;20093;-74
2022/03/10 04:05:12;;;;;;;11.82;7.60;;;11.00;99.90;;;;;;5078415;28;20032;-73
2022/03/10 04:07:39;;;;;;;9.88;7.20;;;11.00;99.90;;;;;;5044337;28;20032;-73
2022/03/10 04:10:07;;;;;;;8.13;7.22;;;11.10;99.90;;;;;;5052214;28;20054;-73
2022/03/10 04:12:33;;;;;;;9.10;6.75;;;11.10;99.90;;;;;;5066245;28;20063;-73
2022/03/10 04:15:00;;;;;;;9.60;6.88;;;11.20;99.90;;;;;;5078085;28;20032;-73
2022/03/10 04:17:26;;;;;;;10.35;7.32;;;11.20;99.90;;;;;;5057077;28;20040;-72
2022/03/10 04:19:52;;;;;;;10.15;6.60;;;11.30;99.90;;;;;;5078089;28;20053;-73
2022/03/10 04:22:18;;;;;;;10.43;6.68;;;11.20;99.90;;;;;;5075013;28;20089;-73
2022/03/10 04:24:44;;;;;;;11.18;6.80;;;11.30;99.90;;;;;;5077962;28;20037;-73
2022/03/10 04:27:10;;;;;;;10.07;6.78;;;11.40;99.90;;;;;;5078271;28;20028;-72
2022/03/10 04:29:35;;;;;;;7.85;6.78;;;11.40;99.90;;;;;;5057767;28;20484;-72
2022/03/10 04:32:01;;;;;;;8.57;6.00;;;11.40;99.90;;;;;;5073311;28;20047;-72
2022/03/10 04:34:27;;;;;;;8.52;7.03;;;11.40;99.90;;;;;;5054722;28;20047;-72
2022/03/10 04:36:53;;;;;;;8.82;6.50;;;11.50;99.90;;;;;;5065443;28;20029;-73
2022/03/10 04:39:19;;;;;;;9.48;6.68;;;11.50;99.90;;;;;;5073293;28;20173;-73
2022/03/10 04:41:44;;;;;;;8.20;6.30;;;11.50;99.90;;;;;;5041803;28;20041;-73
2022/03/10 04:44:11;;;;;;;8.65;6.10;;;11.50;99.90;;;;;;5041284;28;20502;-73
2022/03/10 04:46:38;;;;;;;7.55;5.70;;;11.60;99.90;;;;;;5051052;28;20110;-72
2022/03/10 04:49:04;;;;;;;8.63;5.50;;;11.50;99.90;;;;;;5054611;28;20190;-73
2022/03/10 04:51:30;;;;;;;9.32;5.47;;;11.60;99.90;;;;;;5039047;28;21023;-72
2022/03/10 04:53:55;;;;;;;7.57;5.50;;;11.60;99.90;;;;;;5055206;28;20041;-72
2022/03/10 04:56:21;;;;;;;8.20;5.10;;;11.60;99.90;;;;;;5053813;28;20783;-73
2022/03/10 04:58:47;;;;;;;7.50;5.10;;;11.60;99.90;;;;;;5056338;28;20045;-73
2022/03/10 05:01:14;;;;;;;7.00;5.43;;;11.60;99.90;;;;;;5044915;28;20028;-74
2022/03/10 05:03:40;;;;;;;6.43;4.70;;;11.60;99.90;;;;;;5051140;28;20041;-73
2022/03/10 05:06:06;;;;;;;6.88;5.07;;;11.60;99.90;;;;;;5058750;28;20090;-72
2022/03/10 05:08:31;;;;;;;9.38;5.78;;;11.50;99.90;;;;;;5039566;28;20098;-72
2022/03/10 05:10:58;;;;;;;8.15;4.63;;;11.50;99.90;;;;;;5051457;28;20134;-74
2022/03/10 05:13:24;;;;;;;7.03;5.20;;;11.50;99.90;;;;;;5052650;28;20104;-73
2022/03/10 05:15:50;;;;;;;8.43;5.63;;;11.50;99.90;;;;;;5052372;28;20795;-73
2022/03/10 05:18:16;;;;;;;7.20;5.97;;;11.40;99.90;;;;;;5059464;28;20045;-73
2022/03/10 05:20:42;;;;;;;9.27;5.60;;;11.40;99.90;;;;;;5058362;28;20041;-74
2022/03/10 05:23:08;;;;;;;9.23;6.20;;;11.40;99.90;;;;;;5038699;28;20106;-73
2022/03/10 05:25:36;;;;;;;7.13;5.35;;;11.40;99.90;;;;;;5061645;28;20020;-73
2022/03/10 05:28:03;;;;;;;8.77;5.70;;;11.50;99.90;;;;;;5047080;28;20078;-73
2022/03/10 05:30:29;;;;;;;9.77;6.50;;;11.50;99.90;;;;;;5076888;28;20051;-73
2022/03/10 05:32:55;;;;;;;10.07;6.55;;;11.60;99.90;;;;;;5070680;28;20463;-73
2022/03/10 05:35:21;;;;;;;6.50;5.60;;;11.60;99.90;;;;;;5076406;28;20062;-73
2022/03/10 05:37:51;;;;;;;9.65;6.18;;;11.60;99.90;;;;;;5076468;28;20503;-73
2022/03/10 05:40:21;;;;;;;7.85;5.75;;;11.60;99.90;;;;;;5063932;28;20040;-74
2022/03/10 05:42:48;;;;;;;7.35;5.97;;;11.70;99.90;;;;;;5058001;28;20071;-74
2022/03/10 05:45:19;;;;;;;7.82;6.28;;;11.60;99.90;;;;;;5056715;28;20025;-73
2022/03/10 05:47:46;;;;;;;8.75;5.75;;;11.60;99.90;;;;;;5076707;28;20050;-73
2022/03/10 05:50:11;;;;;;;9.65;7.47;;;11.60;99.90;;;;;;5070102;28;21270;-73
2022/03/10 05:52:38;;;;;;;8.68;7.28;;;11.60;99.90;;;;;;5056746;28;20040;-73
2022/03/10 05:55:05;;;;;;;10.73;8.38;;;11.60;99.90;;;;;;5057392;28;20047;-72
2022/03/10 05:57:31;;;;;;;11.88;9.63;;;11.60;99.90;;;;;;5052951;28;20044;-74
2022/03/10 05:59:56;;;;;;;14.40;10.98;;;11.60;99.90;;;;;;5072183;28;20036;-73
2022/03/10 06:02:23;;;;;;;11.52;9.65;;;11.60;99.90;;;;;;5071993;28;20484;-73
2022/03/10 06:04:49;;;;;;;13.85;10.52;;;11.60;99.90;;;;;;5059109;28;20490;-73
2022/03/10 06:07:16;;;;;;;11.90;10.02;;;11.60;99.90;;;;;;5073314;28;20113;-72
2022/03/10 06:09:42;;;;;;;14.07;9.77;;;11.60;99.90;;;;;;5073835;28;20465;-72
2022/03/10 06:12:09;;;;;;;14.27;10.07;;;11.60;99.90;;;;;;5061749;28;20040;-74
2022/03/10 06:14:35;;;;;;;17.58;11.07;;;11.70;99.90;;;;;;5077050;28;20036;-75
2022/03/10 06:17:03;;;;;;;14.25;11.20;;;11.70;99.90;;;;;;5065317;28;20044;-76
2022/03/10 06:19:28;;;;;;;13.80;11.20;;;11.70;99.90;;;;;;5075066;28;20120;-74
2022/03/10 06:21:54;;;;;;;16.50;12.40;;;11.70;99.90;;;;;;5080130;28;20131;-73
2022/03/10 06:24:21;;;;;;;16.67;12.48;;;11.70;99.90;;;;;;5077856;28;20454;-74
2022/03/10 06:26:47;;;;;;;18.10;13.43;;;11.70;99.90;;;;;;5077678;28;20052;-73
2022/03/10 06:29:13;;;;;;;16.85;11.63;;;11.70;99.90;;;;;;5070369;28;20883;-73
2022/03/10 06:31:40;;;;;;;17.25;12.18;;;11.70;99.90;;;;;;5055440;28;20572;-74
2022/03/10 06:34:06;;;;;;;15.63;12.57;;;11.70;99.90;;;;;;5044632;28;20035;-74
2022/03/10 06:36:32;;;;;;;18.23;13.27;;;11.70;99.90;;;;;;5057212;28;20033;-73
2022/03/10 06:38:58;;;;;;;17.17;12.88;;;11.70;99.90;;;;;;5078468;28;20044;-75
2022/03/10 06:41:24;;;;;;;15.52;11.73;;;11.80;99.90;;;;;;5075535;28;20363;-75
2022/03/10 06:43:50;;;;;;;15.77;12.15;;;11.80;99.90;;;;;;5080310;28;20046;-74
2022/03/10 06:46:16;;;;;;;13.05;10.45;;;11.80;99.90;;;;;;5072483;28;20548;-73
2022/03/10 06:48:42;;;;;;;16.13;11.10;;;11.80;99.90;;;;;;5082254;28;20036;-74
2022/03/10 06:51:08;;;;;;;13.32;10.70;;;11.80;99.90;;;;;;5062372;28;20044;-76
2022/03/10 06:53:34;;;;;;;14.18;11.32;;;11.70;99.90;;;;;;5079087;28;20033;-73
2022/03/10 06:56:01;;;;;;;16.55;11.38;;;11.70;99.90;;;;;;5061718;28;20121;-73
2022/03/10 06:58:27;;;;;;;12.63;10.13;;;11.80;99.90;;;;;;5076552;28;20098;-75
2022/03/10 07:00:52;;;;;;;13.32;9.82;;;11.80;99.90;;;;;;5060409;28;20044;-74
2022/03/10 07:03:20;;;;;;;12.38;10.05;;;11.90;99.90;;;;;;5062480;28;20044;-73
2022/03/10 07:05:46;;;;;;;14.07;10.60;;;11.80;99.90;;;;;;5082364;28;20483;-73
2022/03/10 07:08:12;;;;;;;15.95;12.48;;;11.80;99.90;;;;;;5077981;28;20043;-74
2022/03/10 07:10:38;;;;;;;14.68;10.68;;;11.90;99.90;;;;;;5066336;28;20041;-73
2022/03/10 07:13:05;;;;;;;16.80;11.27;;;11.90;99.90;;;;;;5054807;28;20055;-74
2022/03/10 07:15:31;;;;;;;15.10;10.95;;;12.00;99.90;;;;;;5054843;28;20025;-73
2022/03/10 07:17:56;;;;;;;13.15;10.27;;;12.10;99.90;;;;;;5072799;28;20044;-72
2022/03/10 07:20:22;;;;;;;16.60;10.02;;;12.40;99.90;;;;;;5054499;28;20651;-72
2022/03/10 07:22:48;;;;;;;14.60;10.75;;;12.70;99.90;;;;;;5065811;28;20191;-73
2022/03/10 07:25:14;;;;;;;16.80;10.77;;;12.80;99.90;;;;;;5069681;28;20037;-74
2022/03/10 07:27:40;;;;;;;16.25;10.68;;;12.90;99.90;;;;;;5053910;28;20040;-73
2022/03/10 07:30:07;;;;;;;12.60;8.90;;;12.80;99.90;;;;;;5059964;28;20033;-73
2022/03/10 07:32:33;;;;;;;11.25;9.68;;;12.80;99.90;;;;;;5045584;28;20032;-74
2022/03/10 07:35:00;;;;;;;12.82;8.63;;;12.60;99.90;;;;;;5071764;28;20589;-73
2022/03/10 07:37:27;;;;;;;13.27;10.25;;;12.50;99.90;;;;;;5041412;28;20033;-73
2022/03/10 07:39:52;;;;;;;12.73;9.13;;;12.40;99.90;;;;;;5063173;28;20044;-73
2022/03/10 07:42:18;;;;;;;14.25;10.27;;;12.20;99.90;;;;;;5071909;28;20037;-74
2022/03/10 07:44:44;;;;;;;15.95;10.48;;;12.00;99.90;;;;;;5054649;28;20671;-73
2022/03/10 07:47:10;;;;;;;16.52;11.20;;;11.90;99.90;;;;;;5058559;28;20028;-73
2022/03/10 07:49:36;;;;;;;18.45;10.38;;;11.80;99.90;;;;;;5043426;28;20123;-73
2022/03/10 07:52:03;;;;;;;17.00;12.02;;;11.70;99.90;;;;;;5060284;28;20051;-73
2022/03/10 07:54:29;;;;;;;15.52;10.77;;;11.60;99.90;;;;;;5072333;28;20546;-72
2022/03/10 07:56:55;;;;;;;19.13;12.10;;;11.60;99.90;;;;;;5059657;28;20044;-73
2022/03/10 07:59:21;;;;;;;15.73;11.52;;;11.70;99.90;;;;;;5069710;28;20522;-74
2022/03/10 08:01:47;;;;;;;17.58;11.23;;;11.70;99.90;;;;;;5057846;28;20051;-75
2022/03/10 08:04:14;;;;;;;15.82;10.18;;;11.60;99.90;;;;;;5042862;28;20110;-76
2022/03/10 08:06:40;;;;;;;16.13;10.88;;;11.70;99.90;;;;;;5057991;28;20029;-76
2022/03/10 08:09:07;;;;;;;17.58;11.32;;;11.70;99.90;;;;;;5061442;28;20052;-75
2022/03/10 08:11:38;;;;;;;16.15;11.48;;;11.90;99.90;;;;;;5061643;28;20040;-75
2022/03/10 08:14:05;;;;;;;16.98;12.23;;;11.80;99.90;;;;;;5062876;28;20044;-76
2022/03/10 08:16:32;;;;;;;18.98;11.38;;;11.80;99.90;;;;;;5053614;28;20048;-75
2022/03/10 08:19:01;;;;;;;19.65;11.18;;;11.90;99.90;;;;;;5068741;28;20480;-74
2022/03/10 08:21:27;;;;;;;17.55;11.43;;;11.90;99.90;;;;;;5036698;28;20033;-75
2022/03/10 08:23:54;;;;;;;22.63;11.98;;;11.90;99.90;;;;;;5055482;28;20048;-74
2022/03/10 08:26:20;;;;;;;16.17;11.07;;;12.00;99.90;;;;;;5055695;28;20539;-73
2022/03/10 08:28:51;;;;;;;16.23;11.75;;;12.30;99.90;;;;;;5057388;28;20072;-75
2022/03/10 08:31:18;;;;;;;16.73;11.15;;;12.60;99.90;;;;;;5055597;28;20044;-74
2022/03/10 08:33:44;;;;;;;13.60;10.88;;;12.80;99.90;;;;;;5032804;28;20036;-74
2022/03/10 08:36:10;;;;;;;16.92;10.65;;;13.10;99.90;;;;;;5045704;28;20059;-75
2022/03/10 08:38:36;;;;;;;16.98;10.05;;;13.60;99.90;;;;;;5061206;28;20476;-74
2022/03/10 08:41:02;;;;;;;14.57;9.88;;;13.50;99.90;;;;;;5052386;28;20055;-74
2022/03/10 08:43:30;;;;;;;17.08;10.07;;;13.20;99.90;;;;;;5059565;28;20044;-75
2022/03/10 08:45:58;;;;;;;17.48;9.57;;;13.20;99.90;;;;;;5059267;28;20040;-76
2022/03/10 08:48:25;;;;;;;15.23;10.00;;;13.30;99.90;;;;;;5075557;28;20043;-73
2022/03/10 08:50:51;;;;;;;12.52;9.30;;;13.00;99.90;;;;;;5073149;28;20032;-74
2022/03/10 08:53:17;;;;;;;16.58;9.82;;;13.10;99.90;;;;;;5075381;28;20047;-75
2022/03/10 08:55:44;;;;;;;15.07;9.95;;;13.00;99.90;;;;;;5055870;28;20040;-75
2022/03/10 08:58:09;;;;;;;15.85;8.60;;;13.20;99.90;;;;;;5061494;28;20036;-74
2022/03/10 09:00:37;;;;;;;15.50;9.88;;;13.20;99.90;;;;;;5060114;28;20032;-74
2022/03/10 09:03:03;;;;;;;14.32;8.07;;;13.10;99.90;;;;;;5054718;28;20039;-74
2022/03/10 09:05:29;;;;;;;12.00;7.80;;;13.00;99.90;;;;;;5080737;28;20032;-75
2022/03/10 09:07:55;;;;;;;17.63;7.82;;;13.00;99.90;;;;;;5057558;28;20098;-76
2022/03/10 09:10:21;;;;;;;17.25;8.90;;;13.10;99.90;;;;;;5058446;28;20090;-74
2022/03/10 09:12:47;;;;;;;15.30;8.80;;;13.30;99.90;;;;;;5072250;28;20043;-74
2022/03/10 09:15:13;;;;;;;15.57;9.40;;;13.30;99.90;;;;;;5072011;28;20917;-74
2022/03/10 09:17:40;;;;;;;15.48;9.20;;;13.30;99.90;;;;;;5042784;28;20056;-76
2022/03/10 09:20:07;;;;;;;14.65;8.85;;;13.40;99.90;;;;;;5063352;28;20050;-75
2022/03/10 09:22:33;;;;;;;18.77;8.80;;;13.40;99.90;;;;;;5046757;28;20039;-76
2022/03/10 09:25:02;;;;;;;11.40;7.68;;;13.30;99.90;;;;;;5031771;28;20041;-75
2022/03/10 09:27:29;;;;;;;17.23;9.00;;;13.50;99.90;;;;;;5048267;28;20032;-75
2022/03/10 09:29:55;;;;;;;14.65;8.02;;;13.60;99.90;;;;;;5033585;28;20040;-73
2022/03/10 09:32:21;;;;;;;14.95;7.93;;;13.60;99.90;;;;;;5045165;28;20388;-75
2022/03/10 09:34:46;;;;;;;13.50;8.32;;;13.70;99.90;;;;;;5049842;28;20041;-74
2022/03/10 09:37:12;;;;;;;14.63;7.60;;;13.60;99.90;;;;;;5046158;28;20518;-74
2022/03/10 09:39:38;;;;;;;12.93;7.90;;;13.50;99.90;;;;;;5059881;28;21141;-74
2022/03/10 09:42:05;;;;;;;15.88;8.13;;;13.40;99.90;;;;;;5049919;28;20459;-74
2022/03/10 09:44:33;;;;;;;14.15;8.15;;;13.40;99.90;;;;;;5046381;28;20045;-75
2022/03/10 09:47:03;;;;;;;21.40;9.32;;;13.50;99.90;;;;;;5046507;28;20455;-73
2022/03/10 09:49:33;;;;;;;16.10;7.95;;;13.60;99.90;;;;;;5040827;28;20044;-74
2022/03/10 09:52:00;;;;;;;16.75;7.97;;;13.60;99.90;;;;;;5049512;28;20029;-74
2022/03/10 09:54:29;;;;;;;11.35;7.72;;;13.70;99.90;;;;;;5042005;28;20056;-73
2022/03/10 09:56:56;;;;;;;13.23;7.97;;;13.80;99.90;;;;;;5057255;28;20037;-74
2022/03/10 09:59:24;;;;;;;14.43;7.82;;;13.90;99.90;;;;;;5044243;28;20123;-74
2022/03/10 10:02:07;;;;;;;15.88;8.73;;;13.70;99.90;;;;;;5045163;28;21956;-73
2022/03/10 10:04:33;;;;;;;15.45;8.88;;;14.00;99.90;;;;;;5042650;28;20097;-73
2022/03/10 10:07:00;;;;;;;18.75;8.43;;;14.10;99.90;;;;;;5047099;28;20065;-74
2022/03/10 10:09:42;;;;;;;12.50;7.63;;;14.10;99.90;;;;;;5033405;28;20041;-74
2022/03/10 10:12:09;;;;;;;16.20;8.27;;;14.00;99.90;;;;;;5050488;28;20048;-74
2022/03/10 10:14:44;;;;;;;14.90;7.88;;;13.90;99.90;;;;;;5037844;28;20392;-74
2022/03/10 10:17:10;;;;;;;11.85;7.82;;;14.10;99.90;;;;;;5027900;28;20040;-73
2022/03/10 10:19:38;;;;;;;16.33;9.20;;;13.90;99.90;;;;;;5041618;28;20041;-74
2022/03/10 10:22:15;;;;;;;16.52;9.40;;;13.80;99.90;;;;;;5054581;28;20036;-75
2022/03/10 10:24:57;;;;;;;12.65;7.82;;;13.70;99.90;;;;;;5046476;28;20055;-75
2022/03/10 10:27:26;;;;;;;15.10;8.97;;;13.80;99.90;;;;;;5039867;28;20052;-74
2022/03/10 10:29:54;;;;;;;14.43;7.40;;;14.00;99.90;;;;;;5048233;28;20301;-73
2022/03/10 10:32:53;;;;;;;12.93;8.32;;;14.10;99.90;;;;;;5048134;28;20037;-74
2022/03/10 10:35:23;;;;;;;10.05;5.63;;;14.00;99.90;;;;;;5038264;28;20520;-74
2022/03/10 10:37:54;;;;;;;10.70;4.72;;;13.80;99.90;;;;;;5039729;28;20049;-74
2022/03/10 10:40:33;;;;;;;8.88;4.43;;;13.60;99.90;;;;;;5047034;28;20033;-73
2022/03/10 10:43:03;;;;;;;12.15;3.92;;;13.80;99.90;;;;;;5044949;28;20040;-74
2022/03/10 10:45:38;;;;;;;10.02;4.90;;;13.80;99.90;;;;;;5044235;28;20033;-74
2022/03/10 10:48:10;;;;;;;10.63;4.95;;;14.00;99.90;;;;;;5044676;28;20036;-73
2022/03/10 10:50:47;;;;;;;8.43;4.60;;;13.90;99.90;;;;;;5068356;28;20039;-73
2022/03/10 10:53:31;;;;;;;6.47;3.88;;;14.00;99.90;;;;;;5056858;28;20094;-73
2022/03/10 10:55:57;;;;;;;11.63;5.20;;;14.40;99.90;;;;;;5070008;28;20048;-73
2022/03/10 10:58:26;;;;;;;11.02;4.75;;;14.40;99.90;;;;;;5059329;28;20036;-74
2022/03/10 11:00:52;;;;;;;11.10;4.05;;;14.40;99.90;;;;;;5066674;28;20035;-74
2022/03/10 11:03:23;;;;;;;12.40;3.88;;;14.30;99.90;;;;;;5057821;28;20128;-74
2022/03/10 11:05:50;;;;;;;8.02;4.10;;;14.30;99.90;;;;;;5062121;28;20041;-73
2022/03/10 11:08:18;;;;;;;9.30;3.55;;;14.20;99.90;;;;;;5054587;28;20064;-73
2022/03/10 11:10:44;;;;;;;12.40;3.50;;;14.00;99.90;;;;;;5074174;28;20036;-73
2022/03/10 11:13:10;;;;;;;8.23;3.63;;;14.00;99.90;;;;;;5015259;28;20500;-73
2022/03/10 11:15:38;;;;;;;7.38;3.30;;;14.20;99.90;;;;;;5041312;28;20021;-73
2022/03/10 11:18:06;;;;;;;8.32;3.90;;;14.20;99.90;;;;;;5052077;28;20041;-73
2022/03/10 11:20:35;;;;;;;11.25;4.32;;;14.30;99.90;;;;;;5063982;28;20503;-73
2022/03/10 11:23:48;;;;;;;15.05;4.47;;;14.60;99.90;;;;;;5049464;28;20115;-73
2022/03/10 11:26:30;;;;;;;13.70;4.05;;;14.70;99.90;;;;;;5011935;28;20505;-74
2022/03/10 11:28:58;;;;;;;5.97;3.20;;;15.50;99.90;;;;;;5045761;28;20059;-74
2022/03/10 11:31:26;;;;;;;7.60;3.10;;;15.60;99.90;;;;;;5069017;28;20063;-74
2022/03/10 11:33:52;;;;;;;5.57;2.67;;;15.40;99.90;;;;;;5048109;28;20489;-74
2022/03/10 11:36:22;;;;;;;7.15;3.50;;;15.10;99.90;;;;;;5044339;28;20226;-74
2022/03/10 11:39:05;;;;;;;12.13;4.60;;;15.20;99.90;;;;;;5045342;28;20388;-74
2022/03/10 11:41:46;;;;;;;10.88;3.60;;;14.90;99.90;;;;;;5044007;28;20411;-73
2022/03/10 11:44:13;;;;;;;12.32;3.63;;;14.60;99.90;;;;;;5046814;28;20090;-73
2022/03/10 11:47:14;;;;;;;9.23;4.40;;;14.20;99.90;;;;;;5043827;28;20075;-73
2022/03/10 11:49:42;;;;;;;9.55;4.03;;;14.20;99.90;;;;;;5044809;28;20057;-73
2022/03/10 11:52:28;;;;;;;11.88;4.20;;;13.90;99.90;;;;;;5051235;28;20123;-74
2022/03/10 11:55:08;;;;;;;11.00;4.90;;;14.20;99.90;;;;;;5057717;28;20098;-74
2022/03/10 11:58:05;;;;;;;9.00;4.45;;;14.10;99.90;;;;;;5047416;28;21100;-74
2022/03/10 12:00:51;;;;;;;12.30;4.22;;;14.10;99.90;;;;;;5011901;28;20033;-73
2022/03/10 12:03:33;;;;;;;8.05;4.10;;;13.90;99.90;;;;;;5041441;28;20037;-74
2022/03/10 12:06:15;;;;;;;14.83;5.13;;;13.90;99.90;;;;;;5062508;28;20736;-74
2022/03/10 12:09:00;;;;;;;15.23;5.30;;;14.10;99.90;;;;;;5051580;28;20312;-74
2022/03/10 12:11:51;;;;;;;12.05;4.30;;;14.30;99.90;;;;;;5050098;28;20094;-73
2022/03/10 12:14:34;;;;;;;10.15;4.53;;;14.30;99.90;;;;;;5032148;28;20530;-76
2022/03/10 12:17:00;;;;;;;9.68;3.90;;;14.30;99.90;;;;;;5066497;28;20104;-75
2022/03/10 12:20:03;;;;;;;8.50;3.97;;;14.30;99.90;;;;;;5030827;28;20106;-74
2022/03/10 12:22:30;;;;;;;10.40;4.20;;;14.20;99.90;;;;;;5064417;28;20151;-74
2022/03/10 12:25:20;;;;;;;13.15;4.45;;;14.40;99.90;;;;;;5040469;28;20039;-74
2022/03/10 12:27:56;;;;;;;12.07;4.13;;;14.30;99.90;;;;;;5054654;28;20123;-73
2022/03/10 12:30:24;;;;;;;10.27;4.15;;;14.50;99.90;;;;;;5069645;28;20627;-75
2022/03/10 12:32:52;;;;;;;11.23;4.13;;;14.40;99.90;;;;;;5052914;28;20599;-75
2022/03/10 12:35:33;;;;;;;9.88;3.90;;;14.40;99.90;;;;;;5066154;28;20511;-73
2022/03/10 12:37:59;;;;;;;8.80;4.18;;;14.40;99.90;;;;;;5051310;28;20408;-74
2022/03/10 12:40:27;;;;;;;12.75;4.47;;;14.00;99.90;;;;;;5066444;28;20040;-74
2022/03/10 12:43:01;;;;;;;8.63;4.50;;;14.10;99.90;;;;;;5049923;28;20621;-74
2022/03/10 12:45:28;;;;;;;10.90;4.70;;;14.00;99.90;;;;;;5050376;28;20036;-75
2022/03/10 12:48:04;;;;;;;11.02;4.45;;;14.30;99.90;;;;;;5058647;28;20044;-74
2022/03/10 12:50:33;;;;;;;10.85;4.82;;;14.20;99.90;;;;;;5053713;28;20029;-75